Time;durP1;ratioP1;P1;durP2;ratioP2;P2;SDS_P1;SDS_P2;PMS_P1;PMS_P2;Temp;Humidity;BMP_temperature;BMP_pressure;BME280_temperature;BME280_humidity;BME280_pressure;Samples;Min_cycle;Max_cycle;Signal;HPM_P1;HPM_P2
2021/12/21 00:01:16;;;;;;;3.47;2.50;;;14.60;41.70;;;;;;5113452;28;20035;-64
2021/12/21 00:03:42;;;;;;;3.13;2.38;;;15.50;40.90;;;;;;5113446;28;20039;-64
2021/12/21 00:06:08;;;;;;;2.88;2.58;;;16.60;39.00;;;;;;5112928;28;20074;-65
2021/12/21 00:08:33;;;;;;;4.63;2.63;;;17.90;37.00;;;;;;5111905;28;20058;-65
2021/12/21 00:11:00;;;;;;;4.82;2.72;;;18.90;35.10;;;;;;5112064;28;20043;-65
2021/12/21 00:16:26;;;;;;;4.13;2.60;;;20.50;32.40;;;;;;5130273;27;20428;-65
2021/12/21 00:19:10;;;;;;;3.08;2.45;;;21.20;31.40;;;;;;5128991;28;20044;-64
2021/12/21 00:21:40;;;;;;;2.97;2.13;;;21.80;30.50;;;;;;5129163;28;20399;-64
2021/12/21 00:24:19;;;;;;;4.10;2.95;;;22.30;29.90;;;;;;5129314;28;20101;-64
2021/12/21 00:26:45;;;;;;;3.53;2.10;;;22.70;29.50;;;;;;5129141;28;20100;-65
2021/12/21 00:29:14;;;;;;;3.13;2.60;;;23.00;29.00;;;;;;5129051;28;20070;-65
2021/12/21 00:31:39;;;;;;;4.07;2.63;;;23.30;28.80;;;;;;5129934;27;20035;-64
2021/12/21 00:34:11;;;;;;;3.35;2.08;;;23.50;28.60;;;;;;5129940;28;20505;-65
2021/12/21 00:36:38;;;;;;;2.97;2.35;;;23.80;28.20;;;;;;5128837;28;20039;-65
2021/12/21 00:39:07;;;;;;;3.15;2.45;;;24.10;27.90;;;;;;5129888;27;20074;-64
2021/12/21 00:41:34;;;;;;;3.40;2.67;;;24.40;27.60;;;;;;5128569;28;20063;-64
2021/12/21 00:44:00;;;;;;;4.43;2.42;;;24.60;27.30;;;;;;5128556;28;20054;-65
2021/12/21 00:46:26;;;;;;;3.45;2.17;;;24.80;27.20;;;;;;5128773;28;20043;-65
2021/12/21 00:48:55;;;;;;;3.78;2.67;;;24.90;27.00;;;;;;5129800;27;20042;-65
2021/12/21 00:51:25;;;;;;;3.80;2.40;;;24.90;26.90;;;;;;5128295;28;20155;-64
2021/12/21 00:53:51;;;;;;;3.45;2.60;;;25.00;26.80;;;;;;5128521;28;20054;-65
2021/12/21 00:56:17;;;;;;;3.47;2.60;;;25.00;26.80;;;;;;5128508;28;20039;-65
2021/12/21 00:58:43;;;;;;;4.40;2.53;;;25.10;26.70;;;;;;5128205;28;20548;-64
2021/12/21 01:01:11;;;;;;;4.05;2.50;;;25.00;26.70;;;;;;5129383;27;20035;-65
2021/12/21 01:03:44;;;;;;;3.22;2.40;;;25.00;26.70;;;;;;5128657;28;20039;-64
2021/12/21 01:09:09;;;;;;;3.47;2.33;;;24.90;26.90;;;;;;5130367;27;20399;-65
2021/12/21 01:11:40;;;;;;;3.72;2.45;;;24.80;26.90;;;;;;5130208;27;20042;-64
2021/12/21 01:17:15;;;;;;;3.30;2.03;;;24.60;27.00;;;;;;5089364;28;20356;-64
2021/12/21 01:19:45;;;;;;;4.82;3.10;;;24.50;27.00;;;;;;5088447;28;20126;-65
2021/12/21 01:25:16;;;;;;;2.58;2.03;;;24.40;27.10;;;;;;5087777;28;20056;-65
2021/12/21 01:28:10;;;;;;;3.17;2.00;;;24.30;27.10;;;;;;5088261;28;20046;-65
2021/12/21 01:30:49;;;;;;;3.38;2.15;;;24.30;27.10;;;;;;5088054;28;20098;-65
2021/12/21 01:41:50;;;;;;;2.92;2.05;;;24.40;26.90;;;;;;5130228;27;20386;-64
2021/12/21 01:49:50;;;;;;;2.70;2.10;;;24.60;26.70;;;;;;5128805;28;20040;-65
2021/12/21 01:52:20;;;;;;;3.28;2.33;;;24.60;26.70;;;;;;5129405;27;20035;-65
2021/12/21 01:54:47;;;;;;;3.55;2.72;;;24.60;26.70;;;;;;5128586;28;20044;-64
2021/12/21 01:57:14;;;;;;;3.13;2.30;;;24.60;26.70;;;;;;5128654;28;20039;-65
2021/12/21 01:59:41;;;;;;;3.33;2.10;;;24.60;26.60;;;;;;5128597;28;20159;-65
2021/12/21 02:02:12;;;;;;;2.78;2.55;;;24.70;26.60;;;;;;5128910;28;20432;-65
2021/12/21 02:04:40;;;;;;;4.18;2.45;;;24.70;26.60;;;;;;5130308;28;20042;-65
2021/12/21 02:07:10;;;;;;;3.08;2.10;;;24.70;26.60;;;;;;5130076;27;20046;-64
2021/12/21 02:09:37;;;;;;;3.35;2.38;;;24.70;26.60;;;;;;5128481;28;20085;-65
2021/12/21 02:14:52;;;;;;;3.00;2.30;;;24.60;26.60;;;;;;5150871;27;1218107;-65
2021/12/21 02:23:17;;;;;;;3.45;1.90;;;24.40;26.80;;;;;;5155289;27;1152206;-65
2021/12/21 02:31:18;;;;;;;3.20;2.20;;;24.20;26.90;;;;;;5111473;27;1161621;-64
2021/12/21 02:33:47;;;;;;;3.15;2.55;;;24.10;27.00;;;;;;5111842;28;20126;-64
2021/12/21 02:36:13;;;;;;;3.28;2.10;;;24.10;27.00;;;;;;5112168;28;20092;-65
2021/12/21 02:38:38;;;;;;;2.90;2.10;;;24.10;27.00;;;;;;5111841;28;20047;-65
2021/12/21 02:41:04;;;;;;;3.05;1.85;;;24.10;26.90;;;;;;5111729;28;20039;-65
2021/12/21 02:43:35;;;;;;;3.42;2.25;;;24.20;26.90;;;;;;5111728;28;20047;-65
2021/12/21 02:46:01;;;;;;;2.85;2.15;;;24.20;26.80;;;;;;5130015;28;20091;-64
2021/12/21 02:48:31;;;;;;;2.75;2.15;;;24.30;26.70;;;;;;5111771;28;20486;-65
2021/12/21 02:50:56;;;;;;;2.75;2.28;;;24.30;26.70;;;;;;5129724;28;20079;-65
2021/12/21 02:53:22;;;;;;;2.30;1.85;;;24.40;26.60;;;;;;5111558;28;20078;-65
2021/12/21 02:55:47;;;;;;;2.28;1.80;;;24.50;26.60;;;;;;5129930;28;20035;-65
2021/12/21 02:58:13;;;;;;;3.05;2.40;;;24.50;26.50;;;;;;5110700;28;20039;-65
2021/12/21 03:00:39;;;;;;;3.42;2.60;;;24.50;26.50;;;;;;5129566;28;20075;-65
2021/12/21 03:03:12;;;;;;;2.67;2.00;;;24.50;26.40;;;;;;5111290;28;20035;-65
2021/12/21 03:05:38;;;;;;;2.13;1.55;;;24.50;26.40;;;;;;5111514;28;20144;-65
2021/12/21 03:08:12;;;;;;;3.90;1.88;;;24.50;26.40;;;;;;5111474;28;20092;-65
2021/12/21 03:10:45;;;;;;;2.72;1.60;;;24.50;26.40;;;;;;5129580;28;20082;-65
2021/12/21 03:15:57;;;;;;;2.58;1.58;;;24.50;26.40;;;;;;5129249;28;20054;-65
2021/12/21 03:18:22;;;;;;;3.08;2.15;;;24.40;26.50;;;;;;5110982;28;20044;-64
2021/12/21 03:20:48;;;;;;;2.30;1.35;;;24.40;26.50;;;;;;5129509;28;20053;-65
2021/12/21 03:23:14;;;;;;;2.72;1.80;;;24.40;26.50;;;;;;5129394;28;20122;-65
2021/12/21 03:25:39;;;;;;;2.92;1.50;;;24.30;27.10;;;;;;5110338;28;20039;-65
2021/12/21 03:28:05;;;;;;;3.03;1.85;;;24.30;26.50;;;;;;5129094;28;20043;-65
2021/12/21 03:30:30;;;;;;;2.38;1.88;;;24.20;26.50;;;;;;5110522;28;20051;-65
2021/12/21 03:32:56;;;;;;;3.25;1.63;;;24.20;26.60;;;;;;5110616;28;20441;-65
2021/12/21 03:35:24;;;;;;;2.53;1.60;;;24.10;26.60;;;;;;5129069;28;20035;-65
2021/12/21 03:37:53;;;;;;;2.22;1.67;;;24.10;26.70;;;;;;5094267;28;20040;-65
2021/12/21 03:40:19;;;;;;;2.33;1.63;;;24.10;26.60;;;;;;5129057;28;20050;-66
2021/12/21 03:42:45;;;;;;;2.25;1.58;;;24.20;26.60;;;;;;5114687;28;20036;-65
2021/12/21 03:45:10;;;;;;;3.20;2.10;;;24.20;26.60;;;;;;5115315;28;20035;-65
2021/12/21 03:47:36;;;;;;;2.97;1.95;;;24.20;26.60;;;;;;5097042;28;20052;-65
2021/12/21 03:50:10;;;;;;;5.57;1.83;;;24.20;26.50;;;;;;5115297;28;20035;-65
2021/12/21 03:52:36;;;;;;;3.25;2.25;;;24.20;26.50;;;;;;5115048;28;20131;-65
2021/12/21 03:55:03;;;;;;;3.72;1.75;;;24.30;26.50;;;;;;5096975;28;20115;-65
2021/12/21 03:57:30;;;;;;;2.95;1.63;;;24.30;26.50;;;;;;5096863;28;20537;-65
2021/12/21 03:59:57;;;;;;;2.63;1.48;;;24.30;26.40;;;;;;5096609;28;20035;-65
2021/12/21 04:02:25;;;;;;;4.35;1.60;;;24.30;26.40;;;;;;5114742;28;20093;-65
2021/12/21 04:04:52;;;;;;;2.50;1.50;;;24.30;26.40;;;;;;5096821;28;20058;-65
2021/12/21 04:07:18;;;;;;;2.25;1.27;;;24.40;26.30;;;;;;5114900;28;20396;-65
2021/12/21 04:09:48;;;;;;;2.45;1.63;;;24.40;26.30;;;;;;5114743;28;20040;-65
2021/12/21 04:12:14;;;;;;;2.72;1.88;;;24.40;26.30;;;;;;5114660;28;20114;-65
2021/12/21 04:14:40;;;;;;;3.30;1.88;;;24.40;26.20;;;;;;5096415;28;20070;-65
2021/12/21 04:17:06;;;;;;;2.92;1.75;;;24.40;26.20;;;;;;5096200;28;20046;-65
2021/12/21 04:19:32;;;;;;;2.70;1.90;;;24.40;26.20;;;;;;5096503;28;20047;-66
2021/12/21 04:21:58;;;;;;;3.15;1.65;;;24.40;26.20;;;;;;5096534;28;20036;-65
2021/12/21 04:24:24;;;;;;;2.58;1.80;;;24.40;26.20;;;;;;5096016;28;20040;-65
2021/12/21 04:26:49;;;;;;;1.98;1.75;;;24.40;26.20;;;;;;5114439;28;20050;-66
2021/12/21 04:29:15;;;;;;;1.70;1.15;;;24.40;26.20;;;;;;5114245;28;20040;-65
2021/12/21 04:31:41;;;;;;;2.20;1.70;;;24.30;26.20;;;;;;5095804;28;20052;-66
2021/12/21 04:34:06;;;;;;;2.22;1.25;;;24.40;26.20;;;;;;5114366;28;20039;-65
2021/12/21 04:36:32;;;;;;;2.20;1.27;;;24.40;26.10;;;;;;5095905;28;20073;-65
2021/12/21 04:39:01;;;;;;;2.33;1.50;;;24.40;26.10;;;;;;5114139;28;20036;-65
2021/12/21 04:41:28;;;;;;;3.33;1.73;;;24.40;26.20;;;;;;5114142;28;20067;-65
2021/12/21 04:43:57;;;;;;;1.95;1.10;;;24.30;26.10;;;;;;5095839;28;20047;-65
2021/12/21 04:46:23;;;;;;;1.70;1.20;;;24.40;26.70;;;;;;5096045;28;20043;-65
2021/12/21 04:48:49;;;;;;;1.90;1.50;;;24.40;26.20;;;;;;5095624;28;20471;-65
2021/12/21 04:51:15;;;;;;;2.88;1.60;;;24.30;26.10;;;;;;5113981;28;20047;-65
2021/12/21 04:53:41;;;;;;;1.92;1.40;;;24.30;26.10;;;;;;5112976;28;20055;-65
2021/12/21 04:56:07;;;;;;;2.08;1.48;;;24.40;26.10;;;;;;5095662;28;20082;-65
2021/12/21 04:58:33;;;;;;;2.47;1.65;;;24.30;26.10;;;;;;5113739;28;20096;-65
2021/12/21 05:00:58;;;;;;;2.13;1.30;;;24.40;26.10;;;;;;5095739;28;20451;-65
2021/12/21 05:03:24;;;;;;;1.70;1.30;;;24.40;26.10;;;;;;5095625;28;20079;-65
2021/12/21 05:05:51;;;;;;;2.58;1.70;;;24.40;26.00;;;;;;5113722;28;20467;-65
2021/12/21 05:08:23;;;;;;;2.55;1.52;;;24.30;26.00;;;;;;5095374;28;20059;-65
2021/12/21 05:10:53;;;;;;;2.45;1.40;;;24.40;26.00;;;;;;5095249;28;20039;-65
2021/12/21 05:13:22;;;;;;;2.78;1.90;;;24.40;25.90;;;;;;5095518;28;20081;-65
2021/12/21 05:15:48;;;;;;;2.20;1.70;;;24.50;25.90;;;;;;5113330;28;20418;-67
2021/12/21 05:18:15;;;;;;;3.40;1.80;;;24.50;25.90;;;;;;5113348;28;20122;-65
2021/12/21 05:20:41;;;;;;;1.98;1.58;;;24.60;25.80;;;;;;5113537;28;20050;-66
2021/12/21 05:23:08;;;;;;;2.13;1.50;;;24.60;25.70;;;;;;5095311;28;20048;-65
2021/12/21 05:25:34;;;;;;;1.75;1.23;;;24.70;25.60;;;;;;5094984;28;20153;-65
2021/12/21 05:28:00;;;;;;;3.20;1.92;;;24.70;25.60;;;;;;5095306;28;20372;-65
2021/12/21 05:30:27;;;;;;;2.88;1.40;;;24.80;25.50;;;;;;5091152;28;20058;-65
2021/12/21 05:32:53;;;;;;;2.60;1.67;;;24.80;25.50;;;;;;5091748;28;20394;-65
2021/12/21 05:35:20;;;;;;;2.55;1.58;;;24.80;25.50;;;;;;5091383;28;20040;-65
2021/12/21 05:37:47;;;;;;;2.25;1.30;;;24.80;25.50;;;;;;5091457;28;20048;-65
2021/12/21 05:40:16;;;;;;;2.65;1.75;;;24.70;25.50;;;;;;5091592;28;20093;-65
2021/12/21 05:42:45;;;;;;;2.42;1.70;;;24.70;25.60;;;;;;5091604;28;20101;-65
2021/12/21 05:45:13;;;;;;;2.90;1.50;;;24.60;25.60;;;;;;5092531;28;20044;-65
2021/12/21 05:47:39;;;;;;;2.67;1.48;;;24.50;25.70;;;;;;5092559;28;20075;-65
2021/12/21 05:50:09;;;;;;;2.13;1.42;;;24.40;25.70;;;;;;5092458;28;20042;-65
2021/12/21 05:52:35;;;;;;;2.38;1.90;;;24.30;25.80;;;;;;5091612;28;20040;-65
2021/12/21 05:55:05;;;;;;;3.22;1.80;;;24.20;25.90;;;;;;5092451;28;20487;-65
2021/12/21 05:57:31;;;;;;;2.72;1.63;;;24.00;25.90;;;;;;5091282;28;20533;-65
2021/12/21 06:00:00;;;;;;;2.55;1.73;;;23.90;26.10;;;;;;5090959;28;20040;-66
2021/12/21 06:02:26;;;;;;;2.50;1.65;;;23.80;26.20;;;;;;5091148;28;20495;-65
2021/12/21 06:04:52;;;;;;;3.40;2.13;;;23.70;26.20;;;;;;5091023;28;20094;-65
2021/12/21 06:07:17;;;;;;;2.63;1.90;;;23.70;26.20;;;;;;5092150;28;20101;-66
2021/12/21 06:09:48;;;;;;;2.83;1.95;;;23.60;26.20;;;;;;5091101;28;20040;-65
2021/12/21 06:26:04;;;;;;;2.83;1.80;;;23.40;26.40;;;;;;5129999;28;20066;-65
2021/12/21 06:28:30;;;;;;;2.45;1.58;;;23.30;26.40;;;;;;5129107;28;20375;-65
2021/12/21 06:30:56;;;;;;;2.70;1.40;;;23.40;26.40;;;;;;5129034;28;20104;-65
2021/12/21 06:33:22;;;;;;;2.58;1.73;;;23.40;26.40;;;;;;5128790;28;20047;-64
2021/12/21 06:35:47;;;;;;;2.45;1.95;;;23.30;26.30;;;;;;5129736;27;20088;-65
2021/12/21 06:38:13;;;;;;;2.08;1.58;;;23.30;26.30;;;;;;5128667;28;20031;-65
2021/12/21 06:40:39;;;;;;;2.70;1.45;;;23.40;26.30;;;;;;5126585;28;20214;-66
2021/12/21 06:43:11;;;;;;;3.10;2.30;;;23.40;26.30;;;;;;5127408;27;20044;-65
2021/12/21 06:54:05;;;;;;;4.70;1.73;;;23.50;26.60;;;;;;5129961;27;20883;-66
2021/12/21 06:56:31;;;;;;;2.30;1.50;;;23.50;26.70;;;;;;5128203;28;20092;-66
2021/12/21 06:58:57;;;;;;;2.17;1.63;;;23.50;26.70;;;;;;5129302;28;20043;-68
2021/12/21 07:01:26;;;;;;;2.55;1.77;;;23.50;26.60;;;;;;5125742;28;20131;-66
2021/12/21 07:03:51;;;;;;;3.42;2.33;;;23.50;26.70;;;;;;5128103;27;20054;-66
2021/12/21 07:06:19;;;;;;;3.92;2.05;;;23.50;26.60;;;;;;5127961;28;20051;-65
2021/12/21 07:08:47;;;;;;;5.65;1.90;;;23.40;26.60;;;;;;5129094;28;20085;-65
2021/12/21 07:19:25;;;;;;;4.03;2.17;;;23.20;27.20;;;;;;5109428;28;20056;-66
2021/12/21 07:21:51;;;;;;;2.33;1.63;;;23.20;27.30;;;;;;5107253;28;20034;-66
2021/12/21 07:24:17;;;;;;;4.18;1.38;;;23.10;27.30;;;;;;5107030;28;20415;-67
2021/12/21 07:26:43;;;;;;;4.43;2.00;;;23.10;27.30;;;;;;5107246;28;20035;-66
2021/12/21 07:29:08;;;;;;;5.30;1.92;;;23.10;27.20;;;;;;5107848;28;20044;-66
2021/12/21 07:31:34;;;;;;;3.03;2.00;;;23.00;27.20;;;;;;5109273;28;20032;-66
2021/12/21 07:34:00;;;;;;;2.97;2.08;;;23.00;27.10;;;;;;5109178;28;20560;-66
2021/12/21 07:36:29;;;;;;;3.88;1.73;;;22.90;27.10;;;;;;5107684;28;20039;-66
2021/12/21 07:38:55;;;;;;;2.88;1.85;;;22.90;27.10;;;;;;5107992;28;20068;-66
2021/12/21 07:41:21;;;;;;;3.03;1.60;;;22.80;27.10;;;;;;5103511;28;20074;-66
2021/12/21 07:43:47;;;;;;;2.85;1.98;;;22.90;27.00;;;;;;5107602;28;20044;-66
2021/12/21 07:46:12;;;;;;;2.45;1.75;;;22.90;26.90;;;;;;5106725;28;20040;-66
2021/12/21 07:48:40;;;;;;;2.70;1.88;;;22.80;26.90;;;;;;5105729;28;20051;-66
2021/12/21 07:51:07;;;;;;;2.83;2.30;;;22.80;26.80;;;;;;5106897;28;20069;-66
2021/12/21 07:53:34;;;;;;;2.65;1.70;;;22.80;26.80;;;;;;5104570;28;20119;-66
2021/12/21 07:56:02;;;;;;;3.58;2.05;;;22.70;26.80;;;;;;5105858;28;20071;-66
2021/12/21 07:58:29;;;;;;;2.78;2.15;;;22.70;26.80;;;;;;5107275;28;20111;-67
2021/12/21 08:00:57;;;;;;;3.67;2.03;;;22.70;26.80;;;;;;5108111;28;20042;-66
2021/12/21 08:03:23;;;;;;;3.05;1.80;;;22.80;26.70;;;;;;5105978;28;20070;-67
2021/12/21 08:05:52;;;;;;;5.57;2.05;;;22.80;26.60;;;;;;5106926;28;20048;-67
2021/12/21 08:08:21;;;;;;;3.53;1.60;;;22.80;26.60;;;;;;5106618;28;20045;-66
2021/12/21 08:10:54;;;;;;;4.05;1.92;;;22.50;26.80;;;;;;5104433;28;20054;-65
2021/12/21 08:13:21;;;;;;;4.05;1.60;;;22.50;27.10;;;;;;5106651;28;20055;-66
2021/12/21 08:15:47;;;;;;;2.97;1.67;;;22.30;27.10;;;;;;5104546;28;20052;-66
2021/12/21 08:18:14;;;;;;;4.65;1.60;;;22.20;27.40;;;;;;5104552;28;20039;-67
2021/12/21 08:20:41;;;;;;;3.10;1.73;;;22.30;27.50;;;;;;5113184;28;20119;-67
2021/12/21 08:23:08;;;;;;;4.13;1.67;;;22.30;27.50;;;;;;5104585;28;20071;-65
2021/12/21 08:25:35;;;;;;;4.57;1.42;;;22.30;27.60;;;;;;5093842;28;20085;-65
2021/12/21 08:28:01;;;;;;;3.00;1.77;;;22.20;27.80;;;;;;5094538;28;20402;-65
2021/12/21 08:30:28;;;;;;;2.38;1.50;;;22.00;27.90;;;;;;5094573;28;20537;-64
2021/12/21 08:32:54;;;;;;;4.10;1.63;;;22.00;28.10;;;;;;5093077;28;20048;-66
2021/12/21 08:35:20;;;;;;;4.05;1.77;;;21.90;28.10;;;;;;5092549;28;20032;-65
2021/12/21 08:37:52;;;;;;;3.13;1.25;;;21.80;28.20;;;;;;5091694;28;20036;-66
2021/12/21 08:40:21;;;;;;;5.03;1.58;;;21.90;28.30;;;;;;5093320;28;20047;-64
2021/12/21 08:42:49;;;;;;;4.53;1.50;;;21.90;28.30;;;;;;5093616;28;20050;-65
2021/12/21 08:45:15;;;;;;;2.92;1.85;;;21.90;28.20;;;;;;5091962;28;20047;-66
2021/12/21 08:47:41;;;;;;;2.55;1.73;;;22.00;28.10;;;;;;5091144;28;20043;-66
2021/12/21 08:50:09;;;;;;;2.85;1.70;;;22.00;28.20;;;;;;5092799;28;20523;-65
2021/12/21 08:52:38;;;;;;;2.13;1.33;;;22.00;28.10;;;;;;5093860;28;20077;-64
2021/12/21 08:55:10;;;;;;;2.70;1.55;;;22.00;28.00;;;;;;5092273;28;20593;-64
2021/12/21 08:57:36;;;;;;;4.70;1.80;;;22.10;27.90;;;;;;5092830;28;20471;-66
2021/12/21 09:00:06;;;;;;;2.30;1.90;;;22.00;28.00;;;;;;5091531;28;20028;-64
2021/12/21 09:02:35;;;;;;;3.70;2.00;;;22.00;28.10;;;;;;5090742;28;20032;-65
2021/12/21 09:05:06;;;;;;;3.33;2.38;;;22.00;28.20;;;;;;5089759;28;20044;-64
2021/12/21 09:07:35;;;;;;;3.85;1.80;;;22.00;28.20;;;;;;5090518;28;20487;-65
2021/12/21 09:10:01;;;;;;;4.15;1.77;;;22.00;28.20;;;;;;5092518;28;20035;-65
2021/12/21 09:12:26;;;;;;;3.20;2.20;;;22.00;28.20;;;;;;5090142;28;20064;-65
2021/12/21 09:14:52;;;;;;;2.10;1.90;;;22.00;28.30;;;;;;5090562;28;20052;-66
2021/12/21 09:17:18;;;;;;;8.80;2.08;;;22.00;28.30;;;;;;5092356;28;20039;-66
2021/12/21 09:19:44;;;;;;;12.43;2.22;;;22.00;28.20;;;;;;5091215;28;20052;-67
2021/12/21 09:22:09;;;;;;;2.58;1.90;;;22.20;28.10;;;;;;5092304;28;20361;-65
2021/12/21 09:24:35;;;;;;;2.70;2.00;;;22.90;27.70;;;;;;5091635;28;20040;-66
2021/12/21 09:27:00;;;;;;;5.05;2.33;;;23.90;26.80;;;;;;5092114;28;20036;-67
2021/12/21 09:29:26;;;;;;;3.03;2.10;;;24.50;26.10;;;;;;5091917;28;20044;-65
2021/12/21 09:31:52;;;;;;;3.08;2.28;;;24.90;25.50;;;;;;5085089;28;20488;-66
2021/12/21 09:34:17;;;;;;;4.85;2.42;;;25.20;25.40;;;;;;5090149;28;20479;-66
2021/12/21 09:36:43;;;;;;;2.75;1.67;;;25.20;25.30;;;;;;5090378;28;20035;-66
2021/12/21 09:39:09;;;;;;;2.47;2.17;;;25.00;25.30;;;;;;5091955;28;20091;-65
2021/12/21 09:41:34;;;;;;;4.00;2.22;;;25.00;25.40;;;;;;5090590;28;20086;-65
2021/12/21 09:44:01;;;;;;;5.70;2.30;;;24.90;25.50;;;;;;5090602;28;20063;-65
2021/12/21 09:46:27;;;;;;;4.00;1.60;;;24.80;25.70;;;;;;5090224;28;20047;-64
2021/12/21 09:48:52;;;;;;;4.10;1.58;;;24.80;25.80;;;;;;5091881;28;20036;-65
2021/12/21 09:51:18;;;;;;;4.20;1.98;;;24.90;25.70;;;;;;5089729;28;20034;-65
2021/12/21 09:53:44;;;;;;;3.60;2.20;;;24.90;25.70;;;;;;5091267;28;20601;-66
2021/12/21 09:56:09;;;;;;;3.58;1.63;;;24.80;25.70;;;;;;5092120;28;20044;-66
2021/12/21 09:58:35;;;;;;;4.13;2.13;;;24.90;25.70;;;;;;5091160;28;20044;-66
2021/12/21 10:01:03;;;;;;;3.00;1.95;;;24.90;25.70;;;;;;5091194;28;20036;-66
2021/12/21 10:03:29;;;;;;;3.58;1.55;;;24.80;25.80;;;;;;5092331;28;20040;-67
2021/12/21 10:06:11;;;;;;;3.75;1.75;;;24.80;26.60;;;;;;5090623;28;20039;-65
2021/12/21 10:08:38;;;;;;;3.38;2.00;;;24.90;26.00;;;;;;5090749;28;20047;-66
2021/12/21 10:11:06;;;;;;;2.38;1.60;;;25.00;25.80;;;;;;5090393;28;20143;-65
2021/12/21 10:13:36;;;;;;;6.15;1.77;;;25.10;25.80;;;;;;5091674;28;20051;-65
2021/12/21 10:16:05;;;;;;;2.58;1.88;;;25.10;25.60;;;;;;5089063;28;20047;-65
2021/12/21 10:18:41;;;;;;;1.90;1.33;;;25.20;25.70;;;;;;5088819;28;20082;-65
2021/12/21 10:21:11;;;;;;;4.47;1.45;;;25.20;25.70;;;;;;5091806;28;20079;-65
2021/12/21 10:23:40;;;;;;;3.47;1.87;;;25.10;25.80;;;;;;5090428;28;20048;-65
2021/12/21 10:26:11;;;;;;;3.72;1.60;;;25.00;25.90;;;;;;5089591;28;20044;-65
2021/12/21 10:28:40;;;;;;;2.78;1.48;;;24.90;26.10;;;;;;5088471;28;20044;-66
2021/12/21 10:31:09;;;;;;;2.03;1.25;;;24.80;26.30;;;;;;5089037;28;20055;-66
2021/12/21 10:33:36;;;;;;;3.42;1.30;;;25.00;26.30;;;;;;5090192;28;20498;-66
2021/12/21 10:36:06;;;;;;;4.05;1.70;;;25.10;26.20;;;;;;5088244;28;20032;-66
2021/12/21 10:41:17;;;;;;;2.65;1.38;;;25.20;26.00;;;;;;5124246;27;20406;-64
2021/12/21 10:43:44;;;;;;;3.92;1.48;;;25.30;26.00;;;;;;5110069;28;20372;-64
2021/12/21 10:46:10;;;;;;;6.13;2.45;;;25.50;25.80;;;;;;5108288;28;20118;-64
2021/12/21 10:48:37;;;;;;;7.05;1.67;;;25.50;25.90;;;;;;5117108;28;20035;-65
2021/12/21 10:51:08;;;;;;;1.52;1.02;;;25.40;26.10;;;;;;5113124;27;20039;-67
2021/12/21 10:53:37;;;;;;;4.60;1.58;;;25.30;26.00;;;;;;5114994;28;20058;-66
2021/12/21 10:58:43;;;;;;;2.88;1.70;;;25.20;26.10;;;;;;5128712;27;20383;-68
2021/12/21 11:01:13;;;;;;;3.47;1.30;;;25.40;26.20;;;;;;5126394;28;20054;-67
2021/12/21 11:08:58;;;;;;;2.08;1.40;;;25.50;26.20;;;;;;5156374;27;1166972;-66
2021/12/21 11:14:12;;;;;;;2.20;1.50;;;25.80;25.90;;;;;;5088498;27;20360;-68
2021/12/21 11:16:45;;;;;;;4.57;1.15;;;26.20;25.60;;;;;;5083898;28;20045;-67
2021/12/21 11:19:13;;;;;;;1.60;0.85;;;26.10;25.60;;;;;;5085305;28;20470;-68
2021/12/21 11:21:39;;;;;;;1.27;0.70;;;26.20;25.60;;;;;;5076563;28;20111;-66
2021/12/21 11:24:08;;;;;;;1.35;0.80;;;26.20;25.50;;;;;;5089923;28;20116;-70
2021/12/21 11:26:35;;;;;;;2.53;1.25;;;26.10;25.40;;;;;;5074344;28;20068;-67
2021/12/21 11:29:04;;;;;;;1.63;1.00;;;26.00;25.50;;;;;;5076561;28;20036;-67
2021/12/21 11:31:32;;;;;;;1.50;0.93;;;26.00;25.70;;;;;;5075086;28;20036;-67
2021/12/21 11:33:59;;;;;;;1.92;0.70;;;25.90;25.70;;;;;;5074480;28;20381;-67
2021/12/21 11:39:14;;;;;;;2.33;0.85;;;26.10;25.60;;;;;;5071926;28;20137;-67
2021/12/21 11:41:41;;;;;;;3.45;1.00;;;26.10;25.70;;;;;;5072158;28;20116;-67
2021/12/21 11:47:01;;;;;;;1.42;0.60;;;26.10;25.70;;;;;;5128267;27;20350;-68
2021/12/21 11:54:56;;;;;;;2.33;0.88;;;26.10;25.70;;;;;;5139855;27;1163173;-67
2021/12/21 12:00:23;;;;;;;2.58;0.80;;;26.10;25.90;;;;;;5128029;27;20394;-69
2021/12/21 12:02:50;;;;;;;1.88;0.70;;;26.10;25.90;;;;;;5113840;28;20407;-68
2021/12/21 12:10:49;;;;;;;1.75;0.80;;;26.10;25.60;;;;;;5127780;27;20396;-66
2021/12/21 12:13:40;;;;;;;1.15;0.60;;;26.00;25.70;;;;;;5121903;28;20036;-67
2021/12/21 12:16:07;;;;;;;;;;;26.20;25.60;;;;;;5123603;28;20383;-69
2021/12/21 12:18:35;;;;;;;1.13;0.40;;;26.30;25.70;;;;;;5114173;28;19916;-68
2021/12/21 12:21:25;;;;;;;2.17;0.90;;;26.30;25.50;;;;;;5108010;28;20047;-67
2021/12/21 12:26:36;;;;;;;6.72;0.63;;;26.20;25.70;;;;;;5129598;27;20430;-65
2021/12/21 12:29:19;;;;;;;2.67;0.60;;;26.10;25.80;;;;;;5122770;28;20510;-69
2021/12/21 12:32:04;;;;;;;1.20;0.63;;;26.10;26.00;;;;;;5124747;28;20047;-65
2021/12/21 12:34:33;;;;;;;1.85;0.45;;;26.10;25.80;;;;;;5127542;28;20112;-68
2021/12/21 12:37:00;;;;;;;1.75;0.40;;;26.10;25.70;;;;;;5127751;28;20562;-70
2021/12/21 12:42:09;;;;;;;2.65;0.47;;;26.10;25.90;;;;;;5088609;28;20922;-70
2021/12/21 12:44:38;;;;;;;4.65;0.40;;;26.30;25.80;;;;;;5087732;28;20028;-67
2021/12/21 12:47:11;;;;;;;2.55;1.02;;;26.40;25.90;;;;;;5087319;28;20047;-70
2021/12/21 12:49:51;;;;;;;2.20;0.55;;;26.50;25.80;;;;;;5086656;28;20104;-65
2021/12/21 12:52:19;;;;;;;;;;;26.60;25.80;;;;;;5085061;28;20068;-69
2021/12/21 12:54:56;;;;;;;1.52;0.40;;;26.60;25.90;;;;;;5087200;28;19966;-65
2021/12/21 13:03:08;;;;;;;1.50;0.40;;;26.40;25.70;;;;;;5130248;27;20362;-69
2021/12/21 13:05:43;;;;;;;1.73;0.32;;;26.30;26.00;;;;;;5127212;28;20046;-65
2021/12/21 13:10:51;;;;;;;1.23;0.32;;;26.10;26.00;;;;;;5088884;28;20909;-65
2021/12/21 13:13:18;;;;;;;0.85;0.30;;;26.00;26.00;;;;;;5088185;28;20052;-65
2021/12/21 13:15:48;;;;;;;1.80;0.50;;;25.90;26.20;;;;;;5087755;28;20539;-69
2021/12/21 13:18:17;;;;;;;2.13;0.40;;;25.80;26.30;;;;;;5087360;28;20118;-65
2021/12/21 13:20:47;;;;;;;1.85;0.43;;;25.80;26.40;;;;;;5087402;28;20110;-68
2021/12/21 13:25:55;;;;;;;1.13;0.38;;;25.70;26.40;;;;;;5128279;27;20800;-69
2021/12/21 13:28:21;;;;;;;1.05;0.40;;;25.70;26.50;;;;;;5128111;28;20126;-71
2021/12/21 13:30:49;;;;;;;0.90;0.40;;;25.80;26.50;;;;;;5128559;28;20131;-72
2021/12/21 13:33:22;;;;;;;0.80;0.30;;;26.20;26.50;;;;;;5127943;28;20054;-72
2021/12/21 13:35:48;;;;;;;4.60;1.00;;;26.30;26.20;;;;;;5108061;28;20048;-69
2021/12/21 13:38:16;;;;;;;1.25;0.60;;;26.40;26.20;;;;;;5126902;28;20566;-65
2021/12/21 13:40:41;;;;;;;2.25;0.47;;;26.40;26.10;;;;;;5128967;27;20043;-65
2021/12/21 13:43:12;;;;;;;1.85;0.35;;;26.50;26.10;;;;;;5126127;28;20421;-66
2021/12/21 13:45:38;;;;;;;1.50;0.30;;;26.20;26.70;;;;;;5107499;28;20044;-69
2021/12/21 13:48:04;;;;;;;2.83;0.88;;;26.20;26.20;;;;;;5116664;28;20562;-69
2021/12/21 13:50:29;;;;;;;1.50;0.38;;;26.30;26.20;;;;;;5127005;28;20130;-68
2021/12/21 13:52:58;;;;;;;1.50;0.50;;;26.10;26.00;;;;;;5127700;28;20043;-65
2021/12/21 13:58:07;;;;;;;2.55;0.30;;;26.10;26.80;;;;;;5129071;27;20771;-67
2021/12/21 14:00:37;;;;;;;1.90;0.50;;;26.20;26.20;;;;;;5128492;28;20043;-64
2021/12/21 14:03:15;;;;;;;2.47;0.50;;;26.30;26.20;;;;;;5128171;28;20069;-63
2021/12/21 14:05:44;;;;;;;1.45;0.50;;;26.40;26.20;;;;;;5128883;28;20467;-62
2021/12/21 14:08:12;;;;;;;3.08;0.70;;;27.10;26.00;;;;;;5128850;28;20061;-62
2021/12/21 14:10:46;;;;;;;2.05;0.30;;;27.80;25.50;;;;;;5129845;27;20038;-62
2021/12/21 14:13:16;;;;;;;1.77;0.30;;;28.40;25.10;;;;;;5129972;28;20039;-62
2021/12/21 14:15:46;;;;;;;1.27;0.40;;;28.80;24.70;;;;;;5128916;28;20122;-62
2021/12/21 14:18:13;;;;;;;;;;;29.00;24.50;;;;;;5129017;28;20046;-62
2021/12/21 14:20:39;;;;;;;2.03;0.40;;;29.00;24.70;;;;;;5128692;28;19927;-63
2021/12/21 14:23:04;;;;;;;1.10;0.40;;;28.80;25.00;;;;;;5128521;28;20213;-62
2021/12/21 14:25:30;;;;;;;1.50;0.52;;;28.60;24.60;;;;;;5128555;28;20073;-62
2021/12/21 14:28:10;;;;;;;1.83;0.60;;;28.30;24.80;;;;;;5129701;28;20043;-63
2021/12/21 14:30:35;;;;;;;1.55;0.50;;;27.90;25.00;;;;;;5129765;27;20077;-62
2021/12/21 14:33:19;;;;;;;3.13;0.40;;;27.70;25.20;;;;;;5129776;27;20062;-62
2021/12/21 14:35:45;;;;;;;2.83;0.68;;;27.30;25.40;;;;;;5128559;28;20043;-62
2021/12/21 14:38:13;;;;;;;1.98;0.47;;;27.00;25.80;;;;;;5128492;28;20480;-62
2021/12/21 14:40:43;;;;;;;1.50;0.70;;;26.60;25.90;;;;;;5128165;28;20127;-63
2021/12/21 14:43:27;;;;;;;1.52;0.70;;;26.30;26.20;;;;;;5128097;28;20485;-62
2021/12/21 14:45:55;;;;;;;1.60;0.45;;;26.00;26.50;;;;;;5129619;27;20082;-62
2021/12/21 14:48:21;;;;;;;1.23;0.30;;;25.80;26.70;;;;;;5129338;27;20057;-63
2021/12/21 14:50:53;;;;;;;5.00;0.57;;;25.50;26.90;;;;;;5129374;27;20105;-62
2021/12/21 14:53:21;;;;;;;1.33;0.40;;;25.40;27.00;;;;;;5129127;27;20139;-63
2021/12/21 14:55:48;;;;;;;1.45;0.40;;;25.40;27.10;;;;;;5128906;27;20100;-62
2021/12/21 14:58:17;;;;;;;2.33;0.68;;;25.40;27.10;;;;;;5129154;27;20051;-62